createdAt,value
2022-12-28T00:01:46.847Z,1.00
2022-12-28T00:04:17.724Z,1.00
2022-12-28T00:06:45.501Z,0.97
2022-12-28T00:09:12.954Z,0.60
2022-12-28T00:11:39.955Z,0.50
2022-12-28T00:14:06.796Z,0.90
2022-12-28T00:16:36.323Z,1.20
2022-12-28T00:19:06.102Z,0.65
2022-12-28T00:21:33.833Z,1.02
2022-12-28T00:24:01.922Z,0.82
2022-12-28T00:26:31.416Z,1.17
2022-12-28T00:29:04.032Z,0.87
2022-12-28T00:31:31.586Z,0.77
2022-12-28T00:33:58.402Z,1.15
2022-12-28T00:37:10.586Z,1.02
2022-12-28T00:39:12.390Z,1.03
2022-12-28T00:41:39.136Z,0.95
2022-12-28T00:44:05.824Z,0.88
2022-12-28T00:46:32.510Z,1.23
2022-12-28T00:48:59.413Z,1.25
2022-12-28T00:51:26.162Z,0.80
2022-12-28T00:53:52.878Z,0.75
2022-12-28T00:56:22.034Z,0.60
2022-12-28T00:58:59.588Z,1.10
2022-12-28T01:01:29.864Z,0.90
2022-12-28T01:03:57.291Z,0.68
2022-12-28T01:06:24.094Z,0.80
2022-12-28T01:08:50.837Z,0.82
2022-12-28T01:11:29.001Z,0.65
2022-12-28T01:13:58.859Z,0.80
2022-12-28T01:16:30.176Z,0.80
2022-12-28T01:18:59.509Z,0.95
2022-12-28T01:21:28.491Z,0.85
2022-12-28T01:23:59.014Z,1.00
2022-12-28T01:26:26.626Z,1.00
2022-12-28T01:28:55.840Z,0.55
2022-12-28T01:31:22.688Z,0.90
2022-12-28T01:33:49.603Z,0.85
2022-12-28T01:36:19.382Z,0.73
2022-12-28T01:38:47.258Z,0.80
2022-12-28T01:41:17.090Z,1.00
2022-12-28T01:43:52.589Z,0.75
2022-12-28T01:46:21.651Z,0.75
2022-12-28T01:49:03.012Z,1.05
2022-12-28T01:51:34.063Z,1.02
2022-12-28T01:54:03.047Z,0.75
2022-12-28T01:56:29.884Z,0.80
2022-12-28T01:58:57.700Z,0.90
2022-12-28T02:01:25.432Z,1.35
2022-12-28T02:03:52.449Z,0.98
2022-12-28T02:06:20.027Z,1.10
2022-12-28T02:09:16.905Z,0.90
2022-12-28T02:11:44.378Z,1.37
2022-12-28T02:14:13.414Z,0.93
2022-12-28T02:16:42.238Z,0.70
2022-12-28T02:19:13.429Z,0.88
2022-12-28T02:21:54.857Z,1.20
2022-12-28T02:24:49.461Z,1.00
2022-12-28T02:27:38.793Z,0.93
2022-12-28T02:30:12.416Z,1.10
2022-12-28T02:32:41.906Z,2.20
2022-12-28T02:35:17.624Z,1.00
2022-12-28T02:38:03.031Z,0.77
2022-12-28T02:40:59.177Z,1.02
2022-12-28T02:43:29.278Z,1.25
2022-12-28T02:46:14.535Z,0.95
2022-12-28T02:49:05.337Z,1.35
2022-12-28T02:51:55.992Z,1.23
2022-12-28T02:54:50.373Z,1.45
2022-12-28T02:57:50.355Z,1.10
2022-12-28T03:00:19.522Z,1.10
2022-12-28T03:03:06.568Z,1.00
2022-12-28T03:06:02.583Z,0.98
2022-12-28T03:08:50.785Z,0.95
2022-12-28T03:11:22.924Z,0.93
2022-12-28T03:14:06.531Z,0.80
2022-12-28T03:16:57.742Z,0.90
2022-12-28T03:20:01.944Z,0.93
2022-12-28T03:22:52.142Z,0.85
2022-12-28T03:25:42.602Z,1.27
2022-12-28T03:28:31.701Z,0.93
2022-12-28T03:31:09.896Z,0.87
2022-12-28T03:33:41.760Z,0.75
2022-12-28T03:36:38.287Z,1.05
2022-12-28T03:39:13.476Z,0.90
2022-12-28T03:42:37.815Z,0.82
2022-12-28T03:45:45.125Z,0.52
2022-12-28T03:48:15.632Z,1.10
2022-12-28T03:50:45.141Z,1.10
2022-12-28T03:53:11.817Z,0.70
2022-12-28T03:55:39.768Z,1.52
2022-12-28T03:58:07.068Z,0.95
2022-12-28T04:00:36.771Z,0.63
2022-12-28T04:03:03.553Z,1.15
2022-12-28T04:05:30.289Z,1.48
2022-12-28T04:07:56.957Z,0.77
2022-12-28T04:10:26.743Z,0.90
2022-12-28T04:12:59.293Z,0.70
2022-12-28T04:15:25.990Z,1.03
2022-12-28T04:17:52.716Z,1.13
2022-12-28T04:20:19.612Z,0.70
2022-12-28T04:22:46.272Z,0.90
2022-12-28T04:25:13.062Z,0.82
2022-12-28T04:27:42.511Z,1.20
2022-12-28T04:30:09.644Z,0.70
2022-12-28T04:32:36.309Z,1.15
2022-12-28T04:35:03.799Z,1.00
2022-12-28T04:37:32.761Z,1.08
2022-12-28T04:39:59.475Z,1.08
2022-12-28T04:42:26.461Z,0.70
2022-12-28T04:44:53.228Z,0.60
2022-12-28T04:47:20.127Z,0.70
2022-12-28T04:49:46.856Z,0.88
2022-12-28T04:52:16.116Z,0.77
2022-12-28T04:54:43.674Z,0.75
2022-12-28T04:57:10.295Z,1.40
2022-12-28T04:59:39.014Z,1.00
2022-12-28T05:02:06.660Z,1.30
2022-12-28T05:04:33.500Z,1.13
2022-12-28T05:07:00.177Z,0.85
2022-12-28T05:09:26.855Z,1.00
2022-12-28T05:11:53.828Z,0.95
2022-12-28T05:14:20.648Z,1.30
2022-12-28T05:16:51.350Z,1.23
2022-12-28T05:19:18.229Z,0.75
2022-12-28T05:21:45.051Z,0.88
2022-12-28T05:24:11.919Z,0.47
2022-12-28T05:26:38.551Z,0.60
2022-12-28T05:29:05.242Z,0.90
2022-12-28T05:31:31.937Z,0.70
2022-12-28T05:33:58.815Z,0.60
2022-12-28T05:36:27.136Z,0.95
2022-12-28T05:38:55.491Z,0.75
2022-12-28T05:41:25.595Z,0.98
2022-12-28T05:43:52.595Z,0.70
2022-12-28T05:46:24.165Z,0.85
2022-12-28T05:48:51.254Z,0.22
2022-12-28T05:51:20.196Z,0.70
2022-12-28T05:53:47.553Z,0.75
2022-12-28T05:56:19.778Z,0.80
2022-12-28T05:58:48.084Z,0.85
2022-12-28T06:01:17.064Z,0.50
2022-12-28T06:03:45.196Z,0.50
2022-12-28T06:06:14.795Z,0.75
2022-12-28T06:08:42.569Z,0.90
2022-12-28T06:11:11.551Z,1.10
2022-12-28T06:13:39.035Z,0.80
2022-12-28T06:16:12.733Z,0.63
2022-12-28T06:18:40.115Z,0.60
2022-12-28T06:21:28.696Z,0.82
2022-12-28T06:24:00.354Z,0.50
2022-12-28T06:26:29.356Z,0.47
2022-12-28T06:28:56.786Z,0.85
2022-12-28T06:31:26.823Z,0.57
2022-12-28T06:33:57.405Z,0.50
2022-12-28T06:36:30.227Z,0.28
2022-12-28T06:38:58.444Z,0.65
2022-12-28T06:41:26.627Z,0.75
2022-12-28T06:43:54.235Z,0.80
2022-12-28T06:46:22.439Z,0.60
2022-12-28T06:48:50.555Z,0.90
2022-12-28T06:51:29.605Z,0.40
2022-12-28T06:53:56.401Z,1.00
2022-12-28T06:56:27.498Z,0.85
2022-12-28T06:59:00.308Z,0.40
2022-12-28T07:01:36.430Z,0.80
2022-12-28T07:04:04.764Z,0.77
2022-12-28T07:06:37.680Z,0.32
2022-12-28T07:09:07.597Z,0.80
2022-12-28T07:11:35.061Z,0.82
2022-12-28T07:14:02.071Z,0.65
2022-12-28T07:19:03.640Z,0.95
2022-12-28T07:21:33.640Z,0.60
2022-12-28T07:24:00.836Z,0.50
2022-12-28T07:26:38.061Z,0.80
2022-12-28T07:29:06.389Z,0.60
2022-12-28T07:31:44.117Z,0.50
2022-12-28T07:34:12.050Z,0.70
2022-12-28T07:36:38.999Z,0.70
2022-12-28T07:39:05.809Z,0.80
2022-12-28T07:41:34.123Z,0.50
2022-12-28T07:44:01.758Z,0.77
2022-12-28T07:46:31.605Z,0.60
2022-12-28T07:48:58.298Z,0.75
2022-12-28T07:51:30.930Z,0.57
2022-12-28T07:53:58.788Z,0.60
2022-12-28T07:56:27.194Z,0.93
2022-12-28T07:58:59.721Z,0.85
2022-12-28T08:01:29.484Z,0.60
2022-12-28T08:03:59.532Z,0.50
2022-12-28T08:06:27.694Z,0.30
2022-12-28T08:08:56.552Z,0.80
2022-12-28T08:11:25.759Z,0.63
2022-12-28T08:13:57.043Z,0.60
2022-12-28T08:16:26.689Z,0.57
2022-12-28T08:18:54.451Z,0.80
2022-12-28T08:21:30.520Z,0.60
2022-12-28T08:23:57.779Z,0.45
2022-12-28T08:26:25.791Z,0.93
2022-12-28T08:28:55.438Z,0.70
2022-12-28T08:31:27.740Z,0.40
2022-12-28T08:33:55.887Z,0.90
2022-12-28T08:36:22.914Z,0.80
2022-12-28T08:38:52.561Z,0.85
2022-12-28T08:41:22.547Z,0.63
2022-12-28T08:43:53.055Z,0.35
2022-12-28T08:46:21.199Z,0.60
2022-12-28T08:48:49.337Z,0.65
2022-12-28T08:51:46.028Z,0.63
2022-12-28T08:54:14.201Z,0.70
2022-12-28T08:56:45.711Z,0.47
2022-12-28T08:59:17.685Z,0.73
2022-12-28T09:01:46.073Z,0.60
2022-12-28T09:04:21.792Z,0.28
2022-12-28T09:06:49.253Z,0.40
2022-12-28T09:09:17.861Z,0.50
2022-12-28T09:11:44.832Z,0.28
2022-12-28T09:14:22.040Z,0.63
2022-12-28T09:16:49.777Z,0.43
2022-12-28T09:19:16.572Z,0.68
2022-12-28T09:21:45.161Z,0.63
2022-12-28T09:24:13.466Z,0.20
2022-12-28T09:26:40.543Z,0.57
2022-12-28T09:29:10.617Z,0.50
2022-12-28T09:31:37.578Z,0.30
2022-12-28T09:37:00.386Z,0.50
2022-12-28T09:39:30.076Z,0.63
2022-12-28T09:42:27.023Z,0.57
2022-12-28T09:45:11.050Z,0.73
2022-12-28T09:47:40.243Z,0.60
2022-12-28T09:50:16.013Z,0.40
2022-12-28T09:53:04.561Z,0.20
2022-12-28T09:55:36.914Z,0.73
2022-12-28T09:58:05.299Z,0.32
2022-12-28T10:00:39.444Z,0.40
2022-12-28T10:03:15.408Z,0.30
2022-12-28T10:05:42.282Z,0.50
2022-12-28T10:08:12.484Z,0.38
2022-12-28T10:10:45.268Z,0.30
2022-12-28T10:16:36.501Z,0.40
2022-12-28T10:19:07.574Z,0.43
2022-12-28T10:21:35.309Z,0.40
2022-12-28T10:27:00.259Z,0.20
2022-12-28T10:29:27.614Z,0.20
2022-12-28T10:32:23.517Z,0.32
2022-12-28T10:35:01.475Z,0.45
2022-12-28T10:37:31.491Z,0.40
2022-12-28T10:40:04.427Z,0.30
2022-12-28T10:42:40.342Z,0.47
2022-12-28T10:45:19.844Z,0.35
2022-12-28T10:47:49.699Z,0.30
2022-12-28T10:50:42.355Z,0.80
2022-12-28T10:53:33.673Z,0.40
2022-12-28T10:56:12.600Z,0.40
2022-12-28T10:58:41.520Z,0.30
2022-12-28T11:01:14.048Z,0.40
2022-12-28T11:03:43.835Z,0.52
2022-12-28T11:06:15.158Z,0.50
2022-12-28T11:08:45.935Z,0.40
2022-12-28T11:11:21.132Z,0.30
2022-12-28T11:13:55.483Z,0.60
2022-12-28T11:16:22.332Z,0.57
2022-12-28T11:18:49.181Z,0.57
2022-12-28T11:21:20.788Z,0.55
2022-12-28T11:23:52.183Z,0.55
2022-12-28T11:26:20.021Z,0.30
2022-12-28T11:28:49.750Z,0.30
2022-12-28T11:31:34.893Z,0.50
2022-12-28T11:34:05.166Z,0.52
2022-12-28T11:36:39.945Z,0.40
2022-12-28T11:39:25.211Z,0.57
2022-12-28T11:42:36.648Z,0.70
2022-12-28T11:44:43.200Z,0.30
2022-12-28T11:47:17.706Z,0.52
2022-12-28T11:49:48.412Z,0.45
2022-12-28T11:52:15.101Z,0.30
2022-12-28T11:54:55.494Z,0.35
2022-12-28T11:57:34.545Z,0.50
2022-12-28T12:00:23.643Z,0.30
2022-12-28T12:02:56.357Z,0.30
2022-12-28T12:05:38.612Z,0.77
2022-12-28T12:08:17.252Z,0.20
2022-12-28T12:10:46.064Z,0.50
2022-12-28T12:13:31.025Z,0.40
2022-12-28T12:16:05.298Z,0.40
2022-12-28T12:18:56.708Z,0.20
2022-12-28T12:21:41.669Z,0.47
2022-12-28T12:24:32.855Z,0.40
2022-12-28T12:27:36.528Z,0.55
2022-12-28T12:30:09.950Z,0.28
2022-12-28T12:32:51.372Z,0.40
2022-12-28T12:35:21.771Z,0.60
2022-12-28T12:38:06.437Z,0.45
2022-12-28T12:40:51.780Z,0.30
2022-12-28T12:43:42.227Z,0.45
2022-12-28T12:46:08.913Z,0.38
2022-12-28T12:49:12.180Z,0.32
2022-12-28T12:51:57.778Z,0.43
2022-12-28T12:54:42.480Z,0.35
2022-12-28T12:57:22.834Z,0.50
2022-12-28T13:00:03.640Z,0.20
2022-12-28T13:02:42.151Z,0.40
2022-12-28T13:05:17.259Z,0.40
2022-12-28T13:07:44.348Z,0.20
2022-12-28T13:10:27.663Z,0.20
2022-12-28T13:13:01.403Z,0.43
2022-12-28T13:15:29.077Z,0.40
2022-12-28T13:18:42.847Z,0.40
2022-12-28T13:20:58.065Z,0.40
2022-12-28T13:23:26.283Z,0.30
2022-12-28T13:26:03.017Z,0.30
2022-12-28T13:28:36.504Z,0.30
2022-12-28T13:31:17.121Z,0.20
2022-12-28T13:34:01.135Z,0.20
2022-12-28T13:36:28.264Z,0.40
2022-12-28T13:39:17.770Z,0.30
2022-12-28T13:41:59.368Z,0.40
2022-12-28T13:44:51.123Z,0.20
2022-12-28T13:47:31.108Z,0.32
2022-12-28T13:50:06.578Z,0.40
2022-12-28T13:52:50.855Z,0.40
2022-12-28T13:55:29.067Z,0.50
2022-12-28T13:58:00.283Z,0.60
2022-12-28T14:00:28.795Z,0.43
2022-12-28T14:02:56.758Z,0.50
2022-12-28T14:05:28.977Z,0.47
2022-12-28T14:07:57.172Z,0.68
2022-12-28T14:10:24.806Z,0.55
2022-12-28T14:12:52.687Z,0.67
2022-12-28T14:15:20.057Z,0.30
2022-12-28T14:17:49.211Z,0.30
2022-12-28T14:20:16.236Z,0.60
2022-12-28T14:22:43.043Z,0.57
2022-12-28T14:25:13.059Z,0.47
2022-12-28T14:27:57.361Z,0.40
2022-12-28T14:30:42.074Z,0.20
2022-12-28T14:33:24.649Z,0.47
2022-12-28T14:36:06.029Z,0.40
2022-12-28T14:38:46.080Z,0.30
2022-12-28T14:41:22.656Z,0.20
2022-12-28T14:43:56.535Z,0.30
2022-12-28T14:46:32.494Z,0.30
2022-12-28T14:49:00.012Z,0.22
2022-12-28T14:51:30.844Z,0.38
2022-12-28T14:54:17.967Z,0.40
2022-12-28T14:56:53.891Z,0.50
2022-12-28T14:59:34.870Z,0.40
2022-12-28T15:02:02.147Z,0.30
2022-12-28T15:04:36.321Z,0.45
2022-12-28T15:07:08.217Z,0.50
2022-12-28T15:09:35.364Z,0.20
2022-12-28T15:12:11.856Z,0.40
2022-12-28T15:14:38.800Z,0.30
2022-12-28T15:17:06.005Z,0.40
2022-12-28T15:19:33.406Z,0.37
2022-12-28T15:22:00.293Z,0.20
2022-12-28T15:24:33.642Z,0.50
2022-12-28T15:27:04.458Z,0.35
2022-12-28T15:30:03.818Z,0.15
2022-12-28T15:32:20.786Z,0.22
2022-12-28T15:34:47.762Z,0.55
2022-12-28T15:37:14.464Z,0.30
2022-12-28T15:39:41.105Z,0.30
2022-12-28T15:42:07.869Z,0.20
2022-12-28T15:44:34.610Z,0.43
2022-12-28T15:47:01.348Z,0.20
2022-12-28T15:49:28.065Z,0.37
2022-12-28T15:51:57.919Z,0.22
2022-12-28T15:54:24.651Z,0.47
2022-12-28T15:56:53.056Z,0.30
2022-12-28T15:59:22.801Z,0.20
2022-12-28T16:01:49.911Z,0.30
2022-12-28T16:04:16.943Z,0.28
2022-12-28T16:06:45.028Z,0.30
2022-12-28T16:09:15.406Z,0.30
2022-12-28T16:11:42.914Z,0.60
2022-12-28T16:14:15.044Z,0.47
2022-12-28T16:16:43.332Z,0.30
2022-12-28T16:19:13.101Z,0.40
2022-12-28T16:21:40.155Z,0.20
2022-12-28T16:24:07.090Z,0.20
2022-12-28T16:26:34.482Z,0.55
2022-12-28T16:29:01.850Z,0.50
2022-12-28T16:31:34.476Z,0.23
2022-12-28T16:34:05.647Z,0.30
2022-12-28T16:36:33.005Z,0.32
2022-12-28T16:39:00.198Z,0.28
2022-12-28T16:41:33.046Z,0.20
2022-12-28T16:44:06.129Z,0.40
2022-12-28T16:46:33.200Z,0.40
2022-12-28T16:49:01.150Z,0.20
2022-12-28T16:51:28.875Z,0.38
2022-12-28T16:53:55.979Z,0.30
2022-12-28T16:56:25.877Z,0.20
2022-12-28T16:58:59.357Z,0.30
2022-12-28T17:01:26.989Z,0.20
2022-12-28T17:03:56.281Z,0.20
2022-12-28T17:06:26.898Z,0.40
2022-12-28T17:08:53.610Z,0.30
2022-12-28T17:11:20.268Z,0.50
2022-12-28T17:13:46.936Z,0.40
2022-12-28T17:16:13.667Z,0.40
2022-12-28T17:18:43.430Z,0.35
2022-12-28T17:21:10.475Z,0.50
2022-12-28T17:23:39.496Z,0.20
2022-12-28T17:26:08.643Z,0.38
2022-12-28T17:28:35.908Z,0.30
2022-12-28T17:31:08.166Z,0.43
2022-12-28T17:33:40.143Z,0.37
2022-12-28T17:36:07.997Z,0.30
2022-12-28T17:38:35.002Z,0.40
2022-12-28T17:41:07.930Z,0.20
2022-12-28T17:43:34.651Z,0.25
2022-12-28T17:46:05.362Z,0.35
2022-12-28T17:48:32.199Z,0.20
2022-12-28T17:50:59.006Z,0.52
2022-12-28T17:53:26.270Z,0.50
2022-12-28T17:55:53.137Z,0.40
2022-12-28T17:58:19.945Z,0.50
2022-12-28T18:00:46.800Z,0.50
2022-12-28T18:03:15.678Z,0.40
2022-12-28T18:05:42.674Z,0.43
2022-12-28T18:08:11.798Z,0.60
2022-12-28T18:10:38.577Z,0.40
2022-12-28T18:13:05.251Z,0.50
2022-12-28T18:15:35.048Z,0.40
2022-12-28T18:18:01.847Z,0.30
2022-12-28T18:20:29.010Z,0.30
2022-12-28T18:23:20.482Z,0.30
2022-12-28T18:26:13.717Z,0.45
2022-12-28T18:28:50.965Z,0.22
2022-12-28T18:31:18.246Z,0.40
2022-12-28T18:33:49.437Z,0.55
2022-12-28T18:36:18.039Z,0.40
2022-12-28T18:38:46.376Z,0.30
2022-12-28T18:41:15.589Z,0.30
2022-12-28T18:43:43.206Z,0.20
2022-12-28T18:46:10.109Z,0.30
2022-12-28T18:48:39.442Z,0.20
2022-12-28T18:51:10.987Z,0.35
2022-12-28T18:53:38.841Z,0.32
2022-12-28T18:56:17.199Z,0.68
2022-12-28T18:58:44.578Z,0.60
2022-12-28T19:01:56.063Z,0.30
2022-12-28T19:04:10.332Z,0.47
2022-12-28T19:06:38.170Z,0.20
2022-12-28T19:09:08.681Z,0.30
2022-12-28T19:11:37.090Z,0.30
2022-12-28T19:14:05.314Z,0.30
2022-12-28T19:16:40.276Z,0.55
2022-12-28T19:19:07.137Z,0.40
2022-12-28T19:21:40.971Z,0.25
2022-12-28T19:24:16.948Z,0.20
2022-12-28T19:26:45.011Z,0.40
2022-12-28T19:29:12.853Z,0.45
2022-12-28T19:31:43.106Z,0.20
2022-12-28T19:34:09.912Z,0.20
2022-12-28T19:36:36.885Z,0.40
2022-12-28T19:39:03.671Z,0.30
2022-12-28T19:41:33.211Z,0.40
2022-12-28T19:43:59.907Z,0.43
2022-12-28T19:46:31.413Z,0.30
2022-12-28T19:48:59.999Z,0.32
2022-12-28T19:51:31.328Z,0.20
2022-12-28T19:54:02.109Z,0.30
2022-12-28T19:56:29.048Z,0.40
2022-12-28T19:59:03.090Z,0.40
2022-12-28T20:01:39.885Z,0.25
2022-12-28T20:04:12.763Z,0.20
2022-12-28T20:06:41.900Z,0.60
2022-12-28T20:09:08.622Z,0.60
2022-12-28T20:11:38.835Z,0.35
2022-12-28T20:14:08.420Z,0.30
2022-12-28T20:16:36.074Z,0.20
2022-12-28T20:19:06.487Z,0.50
2022-12-28T20:21:33.763Z,0.50
2022-12-28T20:24:01.581Z,0.50
2022-12-28T20:26:29.368Z,0.30
2022-12-28T20:29:00.315Z,0.20
2022-12-28T20:31:27.838Z,0.30
2022-12-28T20:33:55.144Z,0.32
2022-12-28T20:36:27.636Z,0.40
2022-12-28T20:38:55.616Z,0.50
2022-12-28T20:41:43.359Z,0.32
2022-12-28T20:44:15.941Z,0.30
2022-12-28T20:46:44.107Z,0.30
2022-12-28T20:49:11.010Z,0.70
2022-12-28T20:51:37.889Z,0.47
2022-12-28T20:54:05.018Z,0.82
2022-12-28T20:56:32.038Z,0.50
2022-12-28T20:58:58.829Z,0.40
2022-12-28T21:01:31.937Z,0.50
2022-12-28T21:04:05.863Z,0.40
2022-12-28T21:06:32.806Z,0.30
2022-12-28T21:09:02.665Z,0.47
2022-12-28T21:11:31.105Z,0.40
2022-12-28T21:13:57.820Z,0.45
2022-12-28T21:16:25.442Z,0.68
2022-12-28T21:18:52.424Z,0.60
2022-12-28T21:21:24.469Z,0.38
2022-12-28T21:23:52.503Z,0.40
2022-12-28T21:26:20.519Z,0.50
2022-12-28T21:28:47.622Z,0.43
2022-12-28T21:31:14.909Z,0.40
2022-12-28T21:33:41.892Z,0.40
2022-12-28T21:36:17.972Z,0.30
2022-12-28T21:38:46.968Z,0.35
2022-12-28T21:41:38.871Z,0.60
2022-12-28T21:44:06.706Z,0.38
2022-12-28T21:46:33.999Z,0.30
2022-12-28T21:49:03.433Z,0.40
2022-12-28T21:51:37.411Z,0.60
2022-12-28T21:54:13.210Z,0.30
2022-12-28T21:56:41.304Z,0.67
2022-12-28T21:59:08.677Z,0.30
2022-12-28T22:01:54.690Z,0.45
2022-12-28T22:04:46.226Z,0.63
2022-12-28T22:07:15.931Z,0.35
2022-12-28T22:10:01.421Z,0.38
2022-12-28T22:12:37.523Z,0.30
2022-12-28T22:15:30.263Z,0.55
2022-12-28T22:18:03.662Z,0.45
2022-12-28T22:20:30.731Z,0.30
2022-12-28T22:23:00.296Z,0.30
2022-12-28T22:25:28.741Z,0.52
2022-12-28T22:27:56.022Z,0.20
2022-12-28T22:30:23.141Z,0.30
2022-12-28T22:32:49.856Z,0.10
2022-12-28T22:35:17.083Z,0.35
2022-12-28T22:37:46.131Z,0.50
2022-12-28T22:40:13.948Z,0.20
2022-12-28T22:42:48.733Z,0.20
2022-12-28T22:45:18.185Z,0.13
2022-12-28T22:47:45.740Z,0.30
2022-12-28T22:50:15.337Z,0.40
2022-12-28T22:52:42.436Z,0.30
2022-12-28T22:55:10.216Z,0.28
2022-12-28T22:57:37.170Z,0.25
2022-12-28T23:00:10.820Z,0.50
2022-12-28T23:02:37.792Z,0.20
2022-12-28T23:05:05.267Z,0.43
2022-12-28T23:07:31.943Z,0.30
2022-12-28T23:09:58.628Z,0.20
2022-12-28T23:12:25.529Z,0.40
2022-12-28T23:15:13.557Z,0.35
2022-12-28T23:17:40.296Z,0.50
2022-12-28T23:20:26.216Z,0.38
2022-12-28T23:23:11.685Z,0.20
2022-12-28T23:25:59.250Z,0.47
2022-12-28T23:28:26.799Z,0.13
2022-12-28T23:30:54.069Z,0.30
2022-12-28T23:33:20.932Z,0.20
2022-12-28T23:35:48.562Z,0.30
2022-12-28T23:38:15.298Z,0.52
2022-12-28T23:40:42.538Z,0.57
2022-12-28T23:43:09.238Z,0.25
2022-12-28T23:45:36.499Z,0.40
2022-12-28T23:48:04.386Z,0.40
2022-12-28T23:50:31.095Z,0.35
2022-12-28T23:52:57.931Z,0.45
2022-12-28T23:55:24.634Z,0.30
2022-12-28T23:57:51.471Z,0.47
